CMB849 Details

Departure: Diego Garcia (FJDG)
Arrival: Paya Lebar Airport (WSAP)
Route: NKW R212 PIBED N633 PKU R469 ASUNA
Notes: USTRANSCOM CONTRACT FLIGHT


Current Weather Information
FJDG 250255Z 11009KT 9999 FEW019 SCT090 SCT250 29/26 A2986 RMK SLP108 8/132 T02850262 53010
WSAP 250300Z 20011KT 9999 VCSH FEW018CB FEW020TCU BKN350 31/26 Q1010